.
WxDataArchive / Data Records for 2007-04-08
2007-04-07 April 2007 2007-04-09

Data Records for Sunday, 08 April 2007

Time	Temp	Chill	HIndex	Humid	Dewpt	 Wind 	HiWind	WindDir	Rain 	Barom 
-----	----	-----	------	-----	-----	------	------	-------	-----	----- 
00:00	25.4	25.4	25.4	84	21.3	2	6	248	0.00	29.994 
00:05	25.4	25.4	25.4	84	21.3	1	5	248	0.00	29.991 
00:10	25.4	25.4	25.4	84	21.3	1	4	248	0.00	29.991 
00:15	25.3	25.3	25.3	84	21.2	1	4	248	0.00	29.991 
00:20	25.1	25.1	25.1	84	21.0	1	3	248	0.00	29.991 
00:25	25.1	25.1	25.1	84	21.0	1	4	248	0.00	29.991 
00:30	25.1	25.1	25.1	84	21.0	0	3	248	0.00	29.990 
00:35	25.1	25.1	25.1	85	21.2	1	4	248	0.00	29.991 
00:40	25.1	25.1	25.1	85	21.2	1	4	248	0.00	29.991 
00:45	25.1	25.1	25.1	85	21.2	0	2	248	0.00	29.991 
00:50	25.3	25.3	25.3	85	21.4	0	3	248	0.00	29.991 
00:55	25.3	25.3	25.3	85	21.4	1	3	248	0.00	29.991 
01:00	25.3	25.3	25.3	85	21.4	1	5	248	0.00	29.991 
01:05	25.4	25.4	25.4	85	21.5	1	4	248	0.00	29.993 
01:10	25.4	25.4	25.4	85	21.5	1	4	248	0.00	29.993 
01:15	25.4	25.4	25.4	85	21.5	0	1	248	0.00	29.992 
01:20	25.3	25.3	25.3	85	21.4	1	2	248	0.00	29.990 
01:25	25.3	25.3	25.3	85	21.4	1	2	248	0.00	29.989 
01:30	25.3	25.3	25.3	85	21.4	1	4	248	0.00	29.985 
01:35	25.3	25.3	25.3	85	21.4	1	3	248	0.00	29.985 
01:40	25.3	25.3	25.3	85	21.4	1	5	248	0.00	29.982 
01:45	25.3	25.3	25.3	85	21.4	2	6	248	0.00	29.981 
01:50	25.4	25.4	25.4	84	21.3	1	4	248	0.00	29.979 
01:55	25.4	25.4	25.4	84	21.3	1	4	248	0.00	29.978 
02:00	25.4	25.4	25.4	84	21.3	1	4	270	0.00	29.978 
02:05	25.4	25.4	25.4	84	21.3	1	4	248	0.00	29.975 
02:10	25.4	25.4	25.4	84	21.3	1	5	248	0.00	29.975 
02:15	25.4	25.4	25.4	84	21.3	1	5	248	0.00	29.975 
02:20	25.3	25.3	25.3	84	21.2	1	4	248	0.00	29.976 
02:25	25.3	25.3	25.3	84	21.2	1	4	248	0.00	29.975 
02:30	25.3	25.3	25.3	84	21.2	1	3	225	0.00	29.975 
02:35	25.4	25.4	25.4	84	21.3	1	3	248	0.00	29.976 
02:40	25.4	25.4	25.4	84	21.3	1	4	248	0.00	29.976 
02:45	25.6	25.6	25.6	84	21.5	1	4	248	0.00	29.975 
02:50	25.6	25.6	25.6	83	21.2	1	5	225	0.00	29.975 
02:55	25.7	25.7	25.7	83	21.3	1	5	248	0.00	29.975 
03:00	25.7	25.7	25.7	83	21.3	1	5	248	0.00	29.976 
03:05	25.7	25.7	25.7	83	21.3	1	4	248	0.00	29.975 
03:10	25.7	25.7	25.7	83	21.3	2	4	248	0.00	29.975 
03:15	25.8	25.8	25.8	83	21.4	1	3	248	0.00	29.975 
03:20	25.8	25.8	25.8	82	21.1	2	5	248	0.00	29.974 
03:25	25.8	25.8	25.8	82	21.1	0	2	248	0.00	29.974 
03:30	25.8	25.8	25.8	82	21.1	1	4	248	0.00	29.974 
03:35	26.0	26.0	26.0	82	21.3	1	5	248	0.00	29.974 
03:40	26.0	26.0	26.0	81	21.0	1	4	248	0.00	29.973 
03:45	26.0	26.0	26.0	82	21.3	1	6	248	0.00	29.973 
03:50	25.8	25.8	25.8	81	20.8	1	4	248	0.00	29.974 
03:55	25.7	25.7	25.7	82	21.0	1	3	248	0.00	29.974 
04:00	25.6	25.6	25.6	82	20.9	1	4	248	0.00	29.974 
04:05	25.4	25.4	25.4	82	20.7	1	3	248	0.00	29.978 
04:10	25.3	25.3	25.3	82	20.6	0	2	248	0.00	29.978 
04:15	25.1	25.1	25.1	83	20.7	1	3	248	0.00	29.978 
04:20	25.1	25.1	25.1	83	20.7	0	2	270	0.00	29.978 
04:25	25.0	25.0	25.0	83	20.6	0	3	270	0.00	29.978 
04:30	24.8	24.8	24.8	83	20.4	1	3	248	0.00	29.977 
04:35	24.8	24.8	24.8	84	20.7	1	3	248	0.00	29.977 
04:40	24.8	24.8	24.8	84	20.7	1	4	248	0.00	29.978 
04:45	24.7	24.7	24.7	84	20.6	1	6	248	0.00	29.978 
04:50	24.7	24.7	24.7	84	20.6	1	5	248	0.00	29.978 
04:55	24.7	24.7	24.7	84	20.6	1	4	248	0.00	29.978 
05:00	24.5	24.5	24.5	84	20.4	0	1	248	0.00	29.978 
05:05	24.4	24.4	24.4	84	20.3	0	2	248	0.00	29.979 
05:10	24.4	24.4	24.4	84	20.3	0	2	248	0.00	29.980 
05:15	24.2	24.2	24.2	84	20.1	0	1	248	0.00	29.983 
05:20	24.2	24.2	24.2	84	20.1	0	2	248	0.00	29.983 
05:25	24.1	24.1	24.1	84	20.0	0	1	248	0.00	29.985 
05:30	24.1	24.1	24.1	84	20.0	1	2	225	0.00	29.984 
05:35	24.1	24.1	24.1	84	20.0	0	3	248	0.00	29.986 
05:40	24.2	24.2	24.2	85	20.4	0	2	248	0.00	29.987 
05:45	24.5	24.5	24.5	85	20.6	1	5	248	0.00	29.988 
05:50	24.7	24.7	24.7	84	20.6	0	3	248	0.00	29.991 
05:55	24.8	24.8	24.8	84	20.7	2	4	248	0.00	29.990 
06:00	25.1	25.1	25.1	84	21.0	1	5	248	0.00	29.990 
06:05	25.3	25.3	25.3	83	20.9	2	5	248	0.00	29.990 
06:10	25.4	25.4	25.4	83	21.0	2	5	248	0.00	29.988 
06:15	25.6	25.6	25.6	82	20.9	2	5	248	0.00	29.991 
06:20	25.6	25.6	25.6	82	20.9	1	3	248	0.00	29.995 
06:25	25.7	25.7	25.7	81	20.7	1	3	248	0.00	29.997 
06:30	25.8	25.8	25.8	81	20.8	0	2	292	0.00	29.999 
06:35	25.8	25.8	25.8	81	20.8	1	2	292	0.00	30.002 
06:40	25.8	25.8	25.8	81	20.8	1	2	248	0.00	30.004 
06:45	26.0	26.0	26.0	81	21.0	1	4	248	0.00	30.002 
06:50	26.0	26.0	26.0	81	21.0	1	4	248	0.00	30.004 
06:55	26.1	26.1	26.1	80	20.8	1	3	248	0.00	30.008 
07:00	26.1	26.1	26.1	80	20.8	1	3	248	0.00	30.009 
07:05	26.3	26.3	26.3	80	21.0	1	3	248	0.00	30.010 
07:10	26.4	26.4	26.4	79	20.8	1	3	248	0.00	30.013 
07:15	26.4	26.4	26.4	79	20.8	0	3	248	0.00	30.017 
07:20	26.6	26.6	26.6	79	21.0	1	4	248	0.00	30.019 
07:25	26.7	26.7	26.7	79	21.1	1	4	248	0.00	30.020 
07:30	26.7	26.7	26.7	78	20.8	2	5	248	0.00	30.020 
07:35	26.9	26.9	26.9	78	21.0	1	4	270	0.00	30.021 
07:40	27.0	27.0	27.0	78	21.1	1	4	248	0.00	30.022 
07:45	27.2	27.2	27.2	77	21.0	1	4	248	0.00	30.023 
07:50	27.2	27.2	27.2	77	21.0	1	5	270	0.00	30.023 
07:55	27.3	27.3	27.3	76	20.8	1	3	248	0.00	30.024 
08:00	27.5	27.5	27.5	76	20.9	2	5	248	0.00	30.026 
08:05	27.6	27.6	27.6	76	21.0	2	4	248	0.00	30.027 
08:10	27.6	27.6	27.6	76	21.0	1	3	248	0.00	30.028 
08:15	27.8	27.8	27.8	76	21.2	1	5	248	0.00	30.028 
08:20	27.9	27.9	27.9	75	21.0	1	3	270	0.00	30.029 
08:25	28.2	28.2	28.2	74	21.0	1	5	248	0.00	30.029 
08:30	28.5	28.5	28.5	74	21.3	1	2	248	0.00	30.029 
08:35	29.0	29.0	29.0	74	21.8	1	5	248	0.00	30.029 
08:40	29.4	29.4	29.4	72	21.5	2	4	270	0.00	30.031 
08:45	29.7	29.7	29.7	71	21.5	2	5	248	0.00	30.031 
08:50	29.8	29.8	29.8	72	21.9	2	5	248	0.00	30.032 
08:55	30.0	30.0	30.0	73	22.4	2	5	270	0.00	30.032 
09:00	30.3	30.3	30.3	73	22.7	2	5	270	0.00	30.034 
09:05	30.4	30.4	30.4	73	22.8	2	5	270	0.00	30.036 
09:10	30.4	30.4	30.4	72	22.5	2	5	248	0.00	30.036 
09:15	30.3	30.3	30.3	73	22.7	2	5	270	0.00	30.037 
09:20	30.3	30.3	30.3	72	22.4	2	5	270	0.00	30.037 
09:25	30.3	30.3	30.3	73	22.7	2	3	248	0.00	30.038 
09:30	30.4	30.4	30.4	72	22.5	2	6	248	0.00	30.038 
09:35	30.7	30.7	30.7	73	23.1	2	5	248	0.00	30.040 
09:40	30.7	30.7	30.7	71	22.4	2	4	248	0.00	30.040 
09:45	31.0	31.0	31.0	72	23.1	1	3	248	0.00	30.042 
09:50	31.3	31.3	31.3	71	23.0	2	7	270	0.00	30.044 
09:55	31.5	31.5	31.5	71	23.2	3	6	248	0.00	30.045 
10:00	31.6	31.6	31.6	70	23.0	1	5	338	0.00	30.046 
10:05	31.8	31.8	31.8	70	23.2	2	6	315	0.00	30.050 
10:10	32.1	32.1	32.1	70	23.4	2	7	248	0.00	30.051 
10:15	32.2	32.2	32.2	69	23.2	2	6	292	0.00	30.051 
10:20	32.4	32.4	32.4	70	23.7	1	3	338	0.00	30.050 
10:25	32.4	32.4	32.4	68	23.0	2	6	270	0.00	30.050 
10:30	32.2	32.2	32.2	67	22.5	2	5	270	0.00	30.051 
10:35	32.4	32.4	32.4	68	23.0	1	5	248	0.00	30.053 
10:40	32.2	32.2	32.2	67	22.5	1	6	338	0.00	30.053 
10:45	32.4	32.4	32.4	68	23.0	1	4	270	0.00	30.053 
10:50	32.4	32.4	32.4	67	22.7	2	3	248	0.00	30.053 
10:55	32.2	32.2	32.2	67	22.5	2	5	248	0.00	30.053 
11:00	31.9	31.9	31.9	67	22.2	2	4	248	0.00	30.054 
11:05	31.9	31.9	31.9	69	22.9	1	3	270	0.00	30.054 
11:10	31.8	31.8	31.8	69	22.8	2	5	248	0.00	30.054 
11:15	31.8	31.8	31.8	69	22.8	2	5	270	0.00	30.054 
11:20	31.8	31.8	31.8	67	22.1	2	6	270	0.00	30.053 
11:25	31.9	31.9	31.9	66	21.9	1	2	270	0.00	30.053 
11:30	31.8	31.8	31.8	67	22.1	1	5	248	0.00	30.053 
11:35	31.9	31.9	31.9	69	22.9	1	4	248	0.00	30.055 
11:40	32.1	32.1	32.1	68	22.7	1	5	270	0.00	30.055 
11:45	32.2	32.2	32.2	67	22.5	1	4	270	0.00	30.054 
11:50	32.2	32.2	32.2	67	22.5	2	5	248	0.00	30.055 
11:55	32.2	32.2	32.2	67	22.5	2	10	248	0.00	30.055 
12:00	32.4	32.4	32.4	66	22.3	2	4	248	0.00	30.054 
12:05	32.8	32.8	32.8	65	22.3	2	5	270	0.00	30.051 
12:10	32.9	32.9	32.9	64	22.1	2	4	270	0.00	30.051 
12:15	33.4	33.4	33.4	64	22.6	2	5	270	0.00	30.051 
12:20	33.4	33.4	33.4	64	22.6	2	7	248	0.00	30.051 
12:25	33.4	33.4	33.4	64	22.6	2	5	248	0.00	30.051 
12:30	33.4	33.4	33.4	64	22.6	2	5	270	0.00	30.052 
12:35	33.4	33.4	33.4	64	22.6	2	5	248	0.00	30.052 
12:40	33.5	33.5	33.5	66	23.4	2	6	270	0.00	30.052 
12:45	33.8	33.8	33.8	65	23.3	2	7	248	0.00	30.052 
12:50	34.0	34.0	34.0	63	22.7	2	5	270	0.00	30.052 
12:55	34.1	34.1	34.1	61	22.1	2	7	270	0.00	30.052 
13:00	34.0	34.0	34.0	61	22.0	3	9	270	0.00	30.052 
13:05	33.8	33.8	33.8	61	21.8	1	5	292	0.00	30.052 
13:10	33.8	33.8	33.8	61	21.8	3	9	248	0.00	30.052 
13:15	33.5	33.5	33.5	62	21.9	3	10	248	0.00	30.052 
13:20	33.5	33.5	33.5	63	22.3	2	7	248	0.00	30.052 
13:25	33.5	33.5	33.5	63	22.3	2	5	292	0.00	30.052 
13:30	33.5	33.5	33.5	62	21.9	2	5	248	0.00	30.051 
13:35	33.7	33.7	33.7	61	21.7	3	6	270	0.00	30.051 
13:40	33.5	33.5	33.5	61	21.5	3	8	270	0.00	30.051 
13:45	33.7	33.7	33.7	61	21.7	2	5	270	0.00	30.051 
13:50	33.7	33.7	33.7	60	21.3	2	8	270	0.00	30.051 
13:55	33.7	33.7	33.7	61	21.7	3	6	270	0.00	30.051 
14:00	33.8	33.8	33.8	60	21.4	2	5	270	0.00	30.051 
14:05	34.3	34.3	34.3	60	21.9	2	5	270	0.00	30.049 
14:10	34.6	34.6	34.6	59	21.8	2	9	248	0.00	30.048 
14:15	34.4	34.4	34.4	60	22.0	2	5	270	0.00	30.048 
14:20	34.4	34.4	34.4	61	22.4	2	4	248	0.00	30.048 
14:25	33.8	33.8	33.8	62	22.2	3	6	270	0.00	30.048 
14:30	33.5	33.5	33.5	64	22.6	3	9	270	0.00	30.048 
14:35	33.4	33.4	33.4	64	22.6	2	6	248	0.00	30.050 
14:40	33.5	33.5	33.5	64	22.6	2	5	270	0.00	30.047 
14:45	33.7	33.7	33.7	64	22.8	2	7	270	0.00	30.048 
14:50	34.0	34.0	34.0	64	23.1	2	3	248	0.00	30.046 
14:55	34.6	34.6	34.6	62	22.9	2	4	248	0.00	30.046 
15:00	34.6	34.6	34.6	62	22.9	2	5	248	0.00	30.045 
15:05	34.6	34.6	34.6	62	22.9	2	6	338	0.00	30.046 
15:10	34.4	34.4	34.4	61	22.4	2	6	292	0.00	30.044 
15:15	34.6	34.6	34.6	62	22.9	1	6	270	0.00	30.046 
15:20	34.6	34.6	34.6	61	22.6	2	10	270	0.00	30.045 
15:25	34.3	34.3	34.3	61	22.3	2	5	315	0.00	30.045 
15:30	34.3	34.3	34.3	62	22.7	2	4	292	0.00	30.045 
15:35	34.6	34.6	34.6	62	22.9	2	6	270	0.00	30.047 
15:40	34.7	34.7	34.7	62	23.0	2	3	292	0.00	30.046 
15:45	34.9	34.9	34.9	62	23.2	2	5	270	0.00	30.047 
15:50	34.9	34.9	34.9	61	22.8	1	5	270	0.00	30.047 
15:55	35.2	35.2	35.2	60	22.7	2	7	248	0.00	30.047 
16:00	35.2	35.2	35.2	59	22.3	2	3	270	0.00	30.048 
16:05	35.0	35.0	35.0	60	22.5	2	4	248	0.00	30.046 
16:10	35.2	35.2	35.2	60	22.7	1	5	248	0.00	30.048 
16:15	34.7	34.7	34.7	59	21.9	2	5	270	0.00	30.048 
16:20	34.6	34.6	34.6	60	22.2	2	6	292	0.00	30.049 
16:25	34.4	34.4	34.4	59	21.6	1	5	338	0.00	30.050 
16:30	34.6	34.6	34.6	60	22.2	1	4	248	0.00	30.051 
16:35	34.7	34.7	34.7	60	22.3	1	3	292	0.00	30.049 
16:40	34.9	34.9	34.9	58	21.6	2	4	270	0.00	30.049 
16:45	34.6	34.6	34.6	58	21.4	2	5	292	0.00	30.051 
16:50	34.4	34.4	34.4	59	21.6	1	5	338	0.00	30.053 
16:55	34.6	34.6	34.6	60	22.2	1	3	315	0.00	30.054 
17:00	34.6	34.6	34.6	60	22.2	1	3	248	0.00	30.053 
17:05	34.7	34.7	34.7	58	21.5	1	3	248	0.00	30.053 
17:10	34.9	34.9	34.9	58	21.6	1	3	338	0.00	30.054 
17:15	34.9	34.9	34.9	58	21.6	1	4	270	0.00	30.055 
17:20	34.9	34.9	34.9	58	21.6	1	3	270	0.00	30.057 
17:25	34.9	34.9	34.9	58	21.6	1	3	248	0.00	30.059 
17:30	34.9	34.9	34.9	58	21.6	1	3	315	0.00	30.060 
17:35	34.9	34.9	34.9	58	21.6	1	3	270	0.00	30.061 
17:40	34.7	34.7	34.7	58	21.5	1	5	338	0.00	30.062 
17:45	34.7	34.7	34.7	57	21.0	2	4	292	0.00	30.063 
17:50	34.7	34.7	34.7	58	21.5	0	2	292	0.00	30.064 
17:55	34.7	34.7	34.7	58	21.5	1	2	248	0.00	30.064 
18:00	34.6	34.6	34.6	58	21.4	1	5	338	0.00	30.064 
18:05	34.6	34.6	34.6	59	21.8	1	4	225	0.00	30.065 
18:10	34.4	34.4	34.4	58	21.2	1	5	270	0.00	30.065 
18:15	34.3	34.3	34.3	58	21.1	1	3	338	0.00	30.065 
18:20	34.3	34.3	34.3	59	21.5	0	3	338	0.00	30.066 
18:25	34.1	34.1	34.1	59	21.3	0	2	315	0.00	30.067 
18:30	34.1	34.1	34.1	59	21.3	0	3	315	0.00	30.069 
18:35	34.1	34.1	34.1	59	21.3	0	2	292	0.00	30.070 
18:40	34.1	34.1	34.1	59	21.3	1	2	270	0.00	30.072 
18:45	34.0	34.0	34.0	58	20.8	1	3	270	0.00	30.073 
18:50	34.0	34.0	34.0	59	21.2	1	2	292	0.00	30.073 
18:55	33.8	33.8	33.8	60	21.4	0	3	292	0.00	30.074 
19:00	33.7	33.7	33.7	61	21.7	0	1	292	0.00	30.072 
19:05	33.7	33.7	33.7	60	21.3	0	2	292	0.00	30.072 
19:10	33.5	33.5	33.5	61	21.5	0	1	292	0.00	30.070 
19:15	33.5	33.5	33.5	61	21.5	0	2	270	0.00	30.071 
19:20	33.4	33.4	33.4	61	21.4	0	3	248	0.00	30.074 
19:25	33.4	33.4	33.4	61	21.4	1	3	338	0.00	30.074 
19:30	33.2	33.2	33.2	62	21.6	0	2	270	0.00	30.077 
19:35	33.2	33.2	33.2	62	21.6	0	2	270	0.00	30.079 
19:40	33.1	33.1	33.1	61	21.1	0	2	270	0.00	30.080 
19:45	32.9	32.9	32.9	61	20.9	1	2	270	0.00	30.080 
19:50	32.9	32.9	32.9	61	20.9	0	2	292	0.00	30.081 
19:55	32.9	32.9	32.9	62	21.3	0	1	292	0.00	30.081 
20:00	32.8	32.8	32.8	62	21.2	0	1	292	0.00	30.082 
20:05	32.8	32.8	32.8	63	21.6	0	1	292	0.00	30.081 
20:10	32.8	32.8	32.8	63	21.6	0	3	292	0.00	30.083 
20:15	32.7	32.7	32.7	63	21.5	0	2	292	0.00	30.088 
20:20	32.7	32.7	32.7	63	21.5	0	2	292	0.00	30.090 
20:25	32.5	32.5	32.5	64	21.7	0	2	292	0.00	30.091 
20:30	32.5	32.5	32.5	64	21.7	0	2	292	0.00	30.094 
20:35	32.4	32.4	32.4	64	21.6	0	1	292	0.00	30.095 
20:40	32.4	32.4	32.4	64	21.6	0	0	---	0.00	30.095 
20:45	32.4	32.4	32.4	64	21.6	0	1	292	0.00	30.096 
20:50	32.2	32.2	32.2	64	21.4	0	1	292	0.00	30.096 
20:55	32.2	32.2	32.2	64	21.4	0	2	292	0.00	30.098 
21:00	32.2	32.2	32.2	64	21.4	0	2	292	0.00	30.100 
21:05	32.2	32.2	32.2	64	21.4	0	1	292	0.00	30.099 
21:10	32.2	32.2	32.2	64	21.4	0	2	292	0.00	30.099 
21:15	32.1	32.1	32.1	64	21.3	0	1	292	0.00	30.099 
21:20	32.1	32.1	32.1	64	21.3	0	1	292	0.00	30.100 
21:25	32.1	32.1	32.1	65	21.7	0	1	292	0.00	30.100 
21:30	32.1	32.1	32.1	65	21.7	0	1	292	0.00	30.099 
21:35	31.9	31.9	31.9	65	21.5	0	0	---	0.00	30.097 
21:40	31.9	31.9	31.9	65	21.5	0	1	292	0.00	30.099 
21:45	31.9	31.9	31.9	66	21.9	0	0	---	0.00	30.098 
21:50	31.8	31.8	31.8	65	21.4	0	0	---	0.00	30.099 
21:55	31.8	31.8	31.8	66	21.8	0	1	292	0.00	30.096 
22:00	31.8	31.8	31.8	66	21.8	0	0	---	0.00	30.095 
22:05	31.8	31.8	31.8	66	21.8	0	0	---	0.00	30.094 
22:10	31.8	31.8	31.8	67	22.1	0	0	---	0.00	30.093 
22:15	31.6	31.6	31.6	67	21.9	0	0	---	0.00	30.093 
22:20	31.6	31.6	31.6	67	21.9	0	0	---	0.00	30.093 
22:25	31.6	31.6	31.6	67	21.9	0	0	---	0.00	30.093 
22:30	31.5	31.5	31.5	67	21.8	0	0	---	0.00	30.093 
22:35	31.5	31.5	31.5	67	21.8	0	0	---	0.00	30.092 
22:40	31.5	31.5	31.5	67	21.8	0	0	---	0.00	30.092 
22:45	31.5	31.5	31.5	66	21.5	0	0	---	0.00	30.091 
22:50	31.5	31.5	31.5	67	21.8	0	0	---	0.00	30.089 
22:55	31.5	31.5	31.5	67	21.8	0	1	292	0.00	30.087 
23:00	31.5	31.5	31.5	67	21.8	0	0	---	0.00	30.086 
23:05	31.5	31.5	31.5	67	21.8	0	1	292	0.00	30.085 
23:10	31.5	31.5	31.5	68	22.2	0	1	292	0.00	30.082 
23:15	31.3	31.3	31.3	67	21.6	0	0	---	0.00	30.085 
23:20	31.3	31.3	31.3	69	22.3	0	0	---	0.00	30.086 
23:25	31.3	31.3	31.3	68	22.0	0	0	---	0.00	30.086 
23:30	31.2	31.2	31.2	67	21.5	0	0	---	0.00	30.082 
23:35	31.2	31.2	31.2	68	21.9	0	0	---	0.00	30.083 
23:40	31.2	31.2	31.2	67	21.5	0	0	---	0.00	30.079 
23:45	31.2	31.2	31.2	67	21.5	0	0	---	0.00	30.078 
23:50	31.2	31.2	31.2	68	21.9	0	0	---	0.00	30.079 
23:55	31.2	31.2	31.2	69	22.2	0	0	---	0.00	30.079 

CoCoRaHS
IN-AL-39
A2 Web Hosting
Creative Commons License
GoDaddy
Look for:

loaded 2017-12-12 01:58:52 • last modified 2010-11-18 10:43:29
Privacy PolicyDisclaimer
• wx.awcolley.com is powered by PmWiki v.2002016 •
• all content (unless otherwise noted) © 2017 A W Colley